Time;durP1;ratioP1;P1;durP2;ratioP2;P2;SDS_P1;SDS_P2;PMS_P1;PMS_P2;Temp;Humidity;BMP_temperature;BMP_pressure;BME280_temperature;BME280_humidity;BME280_pressure;Samples;Min_cycle;Max_cycle;Signal;HPM_P1;HPM_P2
2023/09/11 00:00:31;;;;;;;38.63;29.50;;;20.70;99.90;;;;;;4770206;30;20055;-73
2023/09/11 00:02:57;;;;;;;37.15;28.70;;;20.70;99.90;;;;;;4754111;30;20196;-74
2023/09/11 00:05:22;;;;;;;36.03;29.15;;;20.60;99.90;;;;;;4770303;30;20052;-74
2023/09/11 00:07:48;;;;;;;38.92;26.70;;;20.70;99.90;;;;;;4754174;30;20056;-74
2023/09/11 00:10:15;;;;;;;34.13;27.52;;;20.60;99.90;;;;;;4770055;30;20075;-73
2023/09/11 00:12:41;;;;;;;43.65;29.48;;;20.50;99.90;;;;;;4770169;30;20453;-73
2023/09/11 00:15:07;;;;;;;38.63;28.20;;;20.50;99.90;;;;;;4754158;30;20519;-74
2023/09/11 00:17:33;;;;;;;35.30;28.35;;;20.60;99.90;;;;;;4770130;30;20058;-73
2023/09/11 00:19:58;;;;;;;38.83;28.88;;;20.50;99.90;;;;;;4770006;30;20048;-73
2023/09/11 00:22:24;;;;;;;38.05;28.98;;;20.50;99.90;;;;;;4757515;30;20056;-73
2023/09/11 00:24:50;;;;;;;39.90;29.23;;;20.50;99.90;;;;;;4757544;30;20063;-73
2023/09/11 00:27:15;;;;;;;38.42;29.35;;;20.50;99.90;;;;;;4757272;30;20128;-74
2023/09/11 00:29:41;;;;;;;37.25;29.67;;;20.60;99.90;;;;;;4773245;30;20087;-73
2023/09/11 00:32:06;;;;;;;37.70;27.20;;;20.50;99.90;;;;;;4757043;30;20050;-73
2023/09/11 00:34:32;;;;;;;37.95;28.35;;;20.50;99.90;;;;;;4757016;30;20048;-73
2023/09/11 00:36:58;;;;;;;35.15;26.55;;;20.40;99.90;;;;;;4757258;30;20055;-74
2023/09/11 00:39:24;;;;;;;36.15;26.90;;;20.50;99.90;;;;;;4773106;30;20048;-73
2023/09/11 00:41:49;;;;;;;39.35;27.70;;;20.50;99.90;;;;;;4773108;30;20055;-73
2023/09/11 00:44:15;;;;;;;40.03;26.30;;;20.50;99.90;;;;;;4757151;30;20520;-73
2023/09/11 00:46:41;;;;;;;32.90;25.52;;;20.40;99.90;;;;;;4757288;30;20056;-73
2023/09/11 00:49:08;;;;;;;46.25;27.55;;;20.40;99.90;;;;;;4756782;30;20117;-73
2023/09/11 00:51:34;;;;;;;32.47;25.63;;;20.50;99.90;;;;;;4756791;30;20051;-73
2023/09/11 00:54:00;;;;;;;40.92;27.67;;;20.50;99.90;;;;;;4773034;30;20492;-73
2023/09/11 00:56:26;;;;;;;37.63;26.65;;;20.50;99.90;;;;;;4757001;30;20078;-73
2023/09/11 00:58:52;;;;;;;35.10;27.42;;;20.50;99.90;;;;;;4756666;30;20477;-73
2023/09/11 01:01:21;;;;;;;37.63;27.05;;;20.40;99.90;;;;;;4756793;30;20058;-73
2023/09/11 01:03:47;;;;;;;36.72;27.75;;;20.40;99.90;;;;;;4756838;30;20056;-73
2023/09/11 01:06:13;;;;;;;36.10;25.67;;;20.40;99.90;;;;;;4756850;30;20090;-73
2023/09/11 01:08:39;;;;;;;36.13;26.20;;;20.30;99.90;;;;;;4756585;30;20461;-73
2023/09/11 01:11:05;;;;;;;38.75;25.58;;;20.30;99.90;;;;;;4756208;30;20060;-73
2023/09/11 01:13:31;;;;;;;36.47;26.67;;;20.30;99.90;;;;;;4772336;30;20064;-73
2023/09/11 01:16:06;;;;;;;36.30;26.15;;;20.30;99.90;;;;;;4772434;30;20052;-73
2023/09/11 01:18:50;;;;;;;36.85;26.95;;;20.30;99.90;;;;;;4756383;30;20442;-74
2023/09/11 01:21:15;;;;;;;38.40;26.58;;;20.30;99.90;;;;;;4756352;30;20093;-73
2023/09/11 01:24:06;;;;;;;32.00;26.50;;;20.30;99.90;;;;;;4772405;30;20128;-73
2023/09/11 01:26:46;;;;;;;38.55;26.42;;;20.30;99.90;;;;;;4772139;30;20524;-73
2023/09/11 01:29:25;;;;;;;34.90;26.73;;;20.30;99.90;;;;;;4756269;30;20048;-73
2023/09/11 01:31:54;;;;;;;33.65;25.40;;;20.30;99.90;;;;;;4771512;30;20060;-73
2023/09/11 01:34:19;;;;;;;39.33;26.42;;;20.30;99.90;;;;;;4772047;30;20048;-73
2023/09/11 01:36:45;;;;;;;32.22;25.95;;;20.40;99.90;;;;;;4755969;30;20060;-73
2023/09/11 01:39:11;;;;;;;31.75;25.30;;;20.40;99.90;;;;;;4756157;30;20055;-73
2023/09/11 01:41:43;;;;;;;41.67;26.95;;;20.30;99.90;;;;;;4756035;30;20062;-74
2023/09/11 01:44:23;;;;;;;41.25;27.45;;;20.30;99.90;;;;;;4772046;30;20051;-73
2023/09/11 01:46:51;;;;;;;35.78;24.45;;;20.30;99.90;;;;;;4755939;30;20483;-73
2023/09/11 01:49:19;;;;;;;39.25;25.90;;;20.30;99.90;;;;;;4756036;30;20129;-73
2023/09/11 01:51:46;;;;;;;36.42;26.88;;;20.30;99.90;;;;;;4771914;30;20118;-73
2023/09/11 01:54:12;;;;;;;41.90;27.13;;;20.30;99.90;;;;;;4755713;30;20056;-73
2023/09/11 01:56:38;;;;;;;40.30;26.13;;;20.30;99.90;;;;;;4755801;30;20056;-73
2023/09/11 01:59:04;;;;;;;36.13;26.77;;;20.30;99.90;;;;;;4755758;30;20054;-73
2023/09/11 02:01:29;;;;;;;33.53;26.15;;;20.20;99.90;;;;;;4755950;30;20120;-73
2023/09/11 02:03:55;;;;;;;34.90;25.38;;;20.20;99.90;;;;;;4771723;30;20055;-74
2023/09/11 02:06:21;;;;;;;37.40;27.30;;;20.20;99.90;;;;;;4755798;30;20051;-73
2023/09/11 02:08:46;;;;;;;32.22;24.95;;;20.20;99.90;;;;;;4755539;30;20400;-73
2023/09/11 02:11:13;;;;;;;38.53;26.02;;;20.20;99.90;;;;;;4771350;30;20060;-73
2023/09/11 02:13:40;;;;;;;33.80;25.17;;;20.10;99.90;;;;;;4771631;30;20059;-73
2023/09/11 02:16:05;;;;;;;32.83;25.10;;;20.20;99.90;;;;;;4755393;30;20139;-73
2023/09/11 02:18:31;;;;;;;39.05;25.65;;;20.20;99.90;;;;;;4755657;30;20139;-73
2023/09/11 02:20:56;;;;;;;32.70;26.27;;;20.20;99.90;;;;;;4771511;30;20539;-73
2023/09/11 02:23:22;;;;;;;42.50;26.42;;;20.10;99.90;;;;;;4771554;30;20106;-73
2023/09/11 02:25:48;;;;;;;34.58;26.35;;;20.10;99.90;;;;;;4771359;30;20075;-73
2023/09/11 02:28:17;;;;;;;41.50;27.15;;;20.10;99.90;;;;;;4755407;30;20082;-73
2023/09/11 02:30:42;;;;;;;42.20;27.83;;;20.10;99.90;;;;;;4755313;30;20083;-73
2023/09/11 02:33:08;;;;;;;39.20;27.60;;;20.10;99.90;;;;;;4771245;30;20114;-73
2023/09/11 02:35:34;;;;;;;45.70;26.85;;;20.10;99.90;;;;;;4755047;30;20055;-73
2023/09/11 02:38:00;;;;;;;38.67;27.67;;;20.00;99.90;;;;;;4770947;30;20051;-73
2023/09/11 02:40:25;;;;;;;36.40;26.00;;;20.00;99.90;;;;;;4755098;30;20512;-73
2023/09/11 02:42:51;;;;;;;41.20;27.50;;;19.90;99.90;;;;;;4755008;30;20130;-73
2023/09/11 02:45:17;;;;;;;35.25;26.38;;;19.90;99.90;;;;;;4770681;30;20051;-73
2023/09/11 02:47:42;;;;;;;35.53;27.25;;;19.90;99.90;;;;;;4754790;30;20059;-73
2023/09/11 02:50:08;;;;;;;38.33;28.02;;;19.80;99.90;;;;;;4754826;30;20550;-73
2023/09/11 02:52:34;;;;;;;40.05;27.95;;;19.80;99.90;;;;;;4755062;30;20060;-73
2023/09/11 02:54:59;;;;;;;42.35;28.15;;;19.80;99.90;;;;;;4754872;30;20055;-73
2023/09/11 02:57:25;;;;;;;40.03;27.95;;;19.80;99.90;;;;;;4755119;30;20055;-73
2023/09/11 02:59:55;;;;;;;40.90;28.45;;;19.70;99.90;;;;;;4754755;30;20047;-73
2023/09/11 03:02:21;;;;;;;37.30;28.40;;;19.70;99.90;;;;;;4754978;30;20565;-73
2023/09/11 03:04:50;;;;;;;44.55;29.17;;;19.70;99.90;;;;;;4754902;30;20370;-73
2023/09/11 03:07:17;;;;;;;35.58;27.02;;;19.60;99.90;;;;;;4754714;30;20059;-73
2023/09/11 03:09:46;;;;;;;43.55;28.60;;;19.60;99.90;;;;;;4754923;30;20485;-73
2023/09/11 03:12:12;;;;;;;47.03;29.30;;;19.60;99.90;;;;;;4754569;30;20067;-73
2023/09/11 03:14:39;;;;;;;41.80;29.15;;;19.60;99.90;;;;;;4754379;30;20055;-73
2023/09/11 03:17:05;;;;;;;41.55;28.40;;;19.50;99.90;;;;;;4770704;30;20056;-73
2023/09/11 03:19:35;;;;;;;37.58;27.63;;;19.50;99.90;;;;;;4754596;30;20066;-73
2023/09/11 03:22:01;;;;;;;41.60;29.48;;;19.50;99.90;;;;;;4754560;30;20139;-73
2023/09/11 03:24:26;;;;;;;39.70;29.83;;;19.50;99.90;;;;;;4770550;30;20126;-73
2023/09/11 03:26:52;;;;;;;45.55;29.02;;;19.50;99.90;;;;;;4754796;30;20048;-73
2023/09/11 03:29:18;;;;;;;36.72;27.75;;;19.50;99.90;;;;;;4770609;30;20051;-74
2023/09/11 03:31:43;;;;;;;40.28;28.30;;;19.50;99.90;;;;;;4754410;30;20048;-73
2023/09/11 03:34:09;;;;;;;45.05;28.25;;;19.50;99.90;;;;;;4754560;30;20047;-73
2023/09/11 03:36:35;;;;;;;38.83;28.95;;;19.40;99.90;;;;;;4754617;30;20059;-73
2023/09/11 03:39:01;;;;;;;43.13;29.23;;;19.50;99.90;;;;;;4754679;30;20051;-73
2023/09/11 03:41:27;;;;;;;43.25;28.63;;;19.40;99.90;;;;;;4754371;30;20055;-73
2023/09/11 03:43:53;;;;;;;42.58;28.65;;;19.40;99.90;;;;;;4770254;30;20036;-73
2023/09/11 03:46:23;;;;;;;44.10;29.05;;;19.40;99.90;;;;;;4755036;30;20146;-73
2023/09/11 03:48:49;;;;;;;45.60;28.73;;;19.40;99.90;;;;;;4770629;30;20099;-73
2023/09/11 03:51:14;;;;;;;41.35;27.58;;;19.50;99.90;;;;;;4754396;30;20071;-73
2023/09/11 03:53:45;;;;;;;39.55;28.23;;;19.40;99.90;;;;;;4770418;30;20059;-73
2023/09/11 03:56:14;;;;;;;43.65;28.70;;;19.40;99.90;;;;;;4756020;30;20134;-74
2023/09/11 03:58:42;;;;;;;41.85;28.55;;;19.40;99.90;;;;;;4757913;30;20051;-74
2023/09/11 04:01:08;;;;;;;45.92;29.27;;;19.40;99.90;;;;;;4757931;30;20149;-73
2023/09/11 04:03:33;;;;;;;44.35;27.23;;;19.30;99.90;;;;;;4773634;30;20090;-73
2023/09/11 04:05:59;;;;;;;42.00;30.33;;;19.40;99.90;;;;;;4773712;30;20052;-73
2023/09/11 04:08:25;;;;;;;40.10;28.38;;;19.40;99.90;;;;;;4757681;30;20130;-73
2023/09/11 04:10:51;;;;;;;48.17;28.80;;;19.30;99.90;;;;;;4757377;30;20113;-74
2023/09/11 04:13:17;;;;;;;44.97;28.35;;;19.30;99.90;;;;;;4773614;30;20087;-73
2023/09/11 04:15:43;;;;;;;48.20;28.50;;;19.30;99.90;;;;;;4773467;30;20123;-73
2023/09/11 04:18:09;;;;;;;41.13;27.75;;;19.30;99.90;;;;;;4773501;30;20044;-74
2023/09/11 04:20:34;;;;;;;39.28;29.45;;;19.20;99.90;;;;;;4757676;30;20051;-73
2023/09/11 04:23:00;;;;;;;42.10;27.23;;;19.30;99.90;;;;;;4757326;30;20122;-73
2023/09/11 04:25:27;;;;;;;39.83;27.25;;;19.30;99.90;;;;;;4773367;30;20081;-73
2023/09/11 04:27:53;;;;;;;42.70;27.23;;;19.30;99.90;;;;;;4757207;30;20044;-73
2023/09/11 04:30:18;;;;;;;42.45;29.25;;;19.30;99.90;;;;;;4757121;30;20101;-73
2023/09/11 04:32:44;;;;;;;39.10;29.10;;;19.30;99.90;;;;;;4773170;30;20055;-73
2023/09/11 04:35:10;;;;;;;41.28;27.58;;;19.30;99.90;;;;;;4756910;30;20094;-74
2023/09/11 04:37:36;;;;;;;40.60;27.70;;;19.30;99.90;;;;;;4757389;30;20087;-73
2023/09/11 04:40:05;;;;;;;36.60;26.25;;;19.30;99.90;;;;;;4757389;30;20496;-73
2023/09/11 04:42:31;;;;;;;40.75;26.80;;;19.30;99.90;;;;;;4757152;30;20054;-74
2023/09/11 04:44:58;;;;;;;37.33;27.73;;;19.30;99.90;;;;;;4772937;30;20436;-74
2023/09/11 04:47:25;;;;;;;46.72;27.40;;;19.30;99.90;;;;;;4757140;30;20055;-73
2023/09/11 04:49:51;;;;;;;42.70;27.40;;;19.30;99.90;;;;;;4757137;30;20134;-74
2023/09/11 04:52:17;;;;;;;42.65;27.83;;;19.30;99.90;;;;;;4772781;30;20131;-74
2023/09/11 04:54:42;;;;;;;37.05;27.65;;;19.30;99.90;;;;;;4771937;30;20040;-74
2023/09/11 04:57:08;;;;;;;43.53;28.15;;;19.30;99.90;;;;;;4756672;30;20051;-73
2023/09/11 04:59:34;;;;;;;35.45;26.67;;;19.20;99.90;;;;;;4772755;30;20040;-73
2023/09/11 05:01:59;;;;;;;42.25;25.67;;;19.30;99.90;;;;;;4756939;30;20051;-74
2023/09/11 05:04:25;;;;;;;45.50;25.90;;;19.30;99.90;;;;;;4772406;30;20102;-73
2023/09/11 05:06:50;;;;;;;38.33;26.40;;;19.30;99.90;;;;;;4772447;30;20054;-73
2023/09/11 05:09:16;;;;;;;44.20;26.42;;;19.30;99.90;;;;;;4756105;30;20059;-73
2023/09/11 05:11:44;;;;;;;45.63;26.25;;;19.30;99.90;;;;;;4772251;30;20095;-73
2023/09/11 05:14:09;;;;;;;43.25;28.35;;;19.40;99.90;;;;;;4756171;30;20562;-73
2023/09/11 05:16:35;;;;;;;44.47;27.13;;;19.40;99.90;;;;;;4756610;30;20059;-74
2023/09/11 05:19:00;;;;;;;46.55;27.30;;;19.40;99.90;;;;;;4756479;30;20054;-74
2023/09/11 05:21:26;;;;;;;39.92;25.85;;;19.40;99.90;;;;;;4756317;30;20063;-74
2023/09/11 05:23:52;;;;;;;42.85;26.27;;;19.40;99.90;;;;;;4756385;30;20134;-74
2023/09/11 05:26:17;;;;;;;38.35;26.52;;;19.40;99.90;;;;;;4772380;30;20047;-74
2023/09/11 05:28:43;;;;;;;41.67;26.92;;;19.40;99.90;;;;;;4756183;30;20055;-74
2023/09/11 05:31:08;;;;;;;37.83;26.00;;;19.40;99.90;;;;;;4756013;30;20405;-74
2023/09/11 05:33:34;;;;;;;44.05;26.58;;;19.40;99.90;;;;;;4771975;30;20135;-74
2023/09/11 05:36:02;;;;;;;40.65;25.02;;;19.40;99.90;;;;;;4772080;30;20404;-74
2023/09/11 05:38:27;;;;;;;39.03;26.05;;;19.40;99.90;;;;;;4756168;30;20047;-73
2023/09/11 05:40:53;;;;;;;41.42;26.13;;;19.50;99.90;;;;;;4756345;30;20398;-74
2023/09/11 05:43:18;;;;;;;39.05;26.10;;;19.40;99.90;;;;;;4756068;30;20512;-74
2023/09/11 05:45:44;;;;;;;38.92;25.90;;;19.40;99.90;;;;;;4756009;30;20056;-74
2023/09/11 05:48:11;;;;;;;41.90;26.15;;;19.50;99.90;;;;;;4771736;30;20405;-74
2023/09/11 05:50:38;;;;;;;41.20;26.38;;;19.50;99.90;;;;;;4755864;30;20051;-73
2023/09/11 05:53:06;;;;;;;40.75;26.75;;;19.50;99.90;;;;;;4755834;30;20095;-73
2023/09/11 05:55:35;;;;;;;40.22;27.73;;;19.50;99.90;;;;;;4755626;30;20113;-73
2023/09/11 05:58:04;;;;;;;41.25;26.02;;;19.60;99.90;;;;;;4771496;30;20405;-73
2023/09/11 06:00:29;;;;;;;44.00;25.48;;;19.60;99.90;;;;;;4755706;30;20051;-73
2023/09/11 06:02:55;;;;;;;37.67;24.35;;;19.70;99.90;;;;;;4771531;30;20394;-73
2023/09/11 06:05:22;;;;;;;34.08;24.75;;;19.80;99.90;;;;;;4755368;30;20396;-73
2023/09/11 06:07:47;;;;;;;40.00;26.88;;;19.80;99.90;;;;;;4755655;30;20117;-73
2023/09/11 06:10:16;;;;;;;46.67;25.27;;;19.90;99.90;;;;;;4755208;30;20501;-74
2023/09/11 06:12:41;;;;;;;38.17;25.17;;;19.90;99.90;;;;;;4755239;30;20457;-73
2023/09/11 06:15:07;;;;;;;37.25;23.95;;;20.10;99.90;;;;;;4755185;30;20591;-73
2023/09/11 06:17:33;;;;;;;38.10;24.02;;;20.10;99.90;;;;;;4755346;30;20059;-73
2023/09/11 06:19:59;;;;;;;38.47;24.77;;;20.20;99.90;;;;;;4754815;30;20455;-73
2023/09/11 06:22:30;;;;;;;37.85;24.17;;;20.20;99.90;;;;;;4771376;30;20135;-74
2023/09/11 06:24:56;;;;;;;31.00;23.23;;;20.30;99.90;;;;;;4755119;30;20063;-73
2023/09/11 06:27:22;;;;;;;35.03;23.67;;;20.30;99.90;;;;;;4755187;30;20305;-73
2023/09/11 06:29:47;;;;;;;36.85;23.67;;;20.40;99.90;;;;;;4755134;30;20058;-73
2023/09/11 06:32:15;;;;;;;42.85;24.17;;;20.50;99.90;;;;;;4768852;30;20083;-73
2023/09/11 06:34:41;;;;;;;32.38;22.95;;;20.60;99.90;;;;;;4744783;30;20489;-73
2023/09/11 06:37:09;;;;;;;34.92;24.60;;;20.60;99.90;;;;;;4719934;30;20102;-73
2023/09/11 06:39:35;;;;;;;43.88;24.58;;;20.70;99.90;;;;;;4718590;30;20045;-72
2023/09/11 06:42:00;;;;;;;38.70;24.55;;;20.70;99.90;;;;;;4719864;30;20053;-73
2023/09/11 06:44:26;;;;;;;33.45;23.38;;;20.90;99.90;;;;;;4734231;30;20048;-73
2023/09/11 06:46:52;;;;;;;34.50;23.17;;;20.80;99.90;;;;;;4736913;30;20048;-74
2023/09/11 06:49:17;;;;;;;35.60;24.80;;;21.00;99.90;;;;;;4737094;30;20051;-74
2023/09/11 06:51:43;;;;;;;39.88;24.08;;;20.90;99.90;;;;;;4737031;30;20135;-73
2023/09/11 06:54:09;;;;;;;37.10;24.67;;;21.00;99.90;;;;;;4752687;30;20059;-73
2023/09/11 06:56:36;;;;;;;41.65;25.40;;;21.10;99.90;;;;;;4736812;30;20056;-73
2023/09/11 06:59:02;;;;;;;36.83;25.95;;;21.20;99.90;;;;;;4737026;30;20060;-73
2023/09/11 07:01:29;;;;;;;39.90;24.90;;;21.30;99.90;;;;;;4736669;30;20505;-73
2023/09/11 07:03:54;;;;;;;38.53;25.00;;;21.30;99.90;;;;;;4736455;30;20048;-73
2023/09/11 07:06:20;;;;;;;31.80;24.58;;;21.30;99.90;;;;;;4726148;30;20166;-73
2023/09/11 07:08:45;;;;;;;41.03;25.80;;;21.40;99.90;;;;;;4723181;30;20055;-73
2023/09/11 07:11:11;;;;;;;40.25;25.50;;;21.50;99.90;;;;;;4726262;30;20148;-73
2023/09/11 07:13:38;;;;;;;30.65;24.20;;;21.50;99.90;;;;;;4743610;30;20524;-73
2023/09/11 07:16:04;;;;;;;31.17;23.92;;;21.60;99.90;;;;;;4743807;30;20056;-73
2023/09/11 07:18:31;;;;;;;34.95;23.13;;;21.70;99.90;;;;;;4726696;30;20053;-73
2023/09/11 07:20:57;;;;;;;37.75;23.98;;;21.90;99.90;;;;;;4727900;30;20101;-75
2023/09/11 07:23:27;;;;;;;32.20;23.55;;;22.00;99.90;;;;;;4719037;30;20410;-72
2023/09/11 07:25:55;;;;;;;38.45;23.90;;;22.00;99.90;;;;;;4719297;30;20049;-71
2023/09/11 07:28:24;;;;;;;28.67;23.38;;;22.10;99.90;;;;;;4719095;30;20413;-71
2023/09/11 07:30:50;;;;;;;37.05;23.85;;;22.10;99.90;;;;;;4736004;30;20084;-72
2023/09/11 07:33:15;;;;;;;33.85;25.13;;;22.10;99.90;;;;;;4722657;30;20115;-72
2023/09/11 07:35:41;;;;;;;33.60;23.35;;;22.20;99.90;;;;;;4722551;30;20186;-72
2023/09/11 07:38:07;;;;;;;35.83;24.98;;;22.20;99.90;;;;;;4722628;30;20053;-72
2023/09/11 07:40:32;;;;;;;35.30;24.52;;;22.20;99.90;;;;;;4722748;30;20056;-71
2023/09/11 07:42:58;;;;;;;36.78;24.80;;;22.30;99.90;;;;;;4722501;30;20498;-72
2023/09/11 07:45:24;;;;;;;31.63;24.70;;;22.30;99.90;;;;;;4722365;30;20064;-72
2023/09/11 07:47:50;;;;;;;35.90;25.70;;;22.30;99.90;;;;;;4722438;30;20052;-72
2023/09/11 07:50:16;;;;;;;38.92;24.52;;;22.30;99.90;;;;;;4722376;30;20069;-72
2023/09/11 07:52:42;;;;;;;32.58;23.42;;;22.40;99.90;;;;;;4722372;30;20056;-73
2023/09/11 07:55:08;;;;;;;32.25;22.30;;;22.40;99.90;;;;;;4722277;30;20084;-73
2023/09/11 07:57:33;;;;;;;29.90;23.98;;;22.50;99.90;;;;;;4738208;30;20072;-73
2023/09/11 08:00:04;;;;;;;34.00;24.65;;;22.60;99.90;;;;;;4737950;30;20110;-73
2023/09/11 08:02:33;;;;;;;33.90;22.73;;;22.70;99.90;;;;;;4722385;30;20065;-73
2023/09/11 08:04:59;;;;;;;33.03;23.35;;;22.80;99.90;;;;;;4742456;30;20044;-73
2023/09/11 08:07:25;;;;;;;38.85;23.98;;;22.80;99.90;;;;;;4746872;30;20117;-73
2023/09/11 08:09:54;;;;;;;28.33;20.58;;;23.00;99.90;;;;;;4738393;30;20131;-73
2023/09/11 08:12:20;;;;;;;33.72;23.48;;;23.10;99.90;;;;;;4739296;30;20169;-73
2023/09/11 08:14:46;;;;;;;31.80;22.25;;;23.20;99.90;;;;;;4739646;30;20055;-73
2023/09/11 08:17:12;;;;;;;31.13;21.42;;;23.20;99.90;;;;;;4738869;30;20078;-73
2023/09/11 08:19:38;;;;;;;32.15;21.27;;;23.40;99.90;;;;;;4737217;30;20095;-73
2023/09/11 08:22:04;;;;;;;29.20;22.15;;;23.40;99.90;;;;;;4755570;30;20101;-73
2023/09/11 08:24:30;;;;;;;36.75;22.50;;;23.50;99.90;;;;;;4755322;30;20446;-72
2023/09/11 08:26:56;;;;;;;29.50;19.55;;;23.60;99.90;;;;;;4739504;30;20052;-73
2023/09/11 08:29:21;;;;;;;27.83;20.20;;;23.70;99.90;;;;;;4755362;30;20044;-73
2023/09/11 08:31:47;;;;;;;30.17;19.35;;;23.80;99.90;;;;;;4739460;30;20116;-73
2023/09/11 08:34:13;;;;;;;32.33;20.70;;;23.90;99.90;;;;;;4739083;30;20494;-73
2023/09/11 08:36:39;;;;;;;25.85;19.67;;;24.00;99.90;;;;;;4739191;30;20052;-73
2023/09/11 08:39:05;;;;;;;28.45;18.15;;;24.00;99.90;;;;;;4739071;30;20048;-73
2023/09/11 08:41:32;;;;;;;29.38;21.00;;;24.10;99.90;;;;;;4738581;30;20105;-73
2023/09/11 08:43:57;;;;;;;28.65;20.33;;;24.20;99.90;;;;;;4738524;30;20186;-73
2023/09/11 08:46:26;;;;;;;27.63;19.95;;;24.30;99.90;;;;;;4731912;30;20135;-72
2023/09/11 08:48:54;;;;;;;31.33;20.48;;;24.30;99.90;;;;;;4739124;30;20052;-73
2023/09/11 08:51:38;;;;;;;29.85;18.98;;;24.40;99.90;;;;;;4738869;30;20528;-73
2023/09/11 08:54:04;;;;;;;25.08;19.00;;;24.50;99.90;;;;;;4738857;30;20401;-73
2023/09/11 08:56:30;;;;;;;26.02;18.08;;;24.50;99.90;;;;;;4754692;30;20056;-73
2023/09/11 08:58:58;;;;;;;28.42;18.85;;;24.60;99.90;;;;;;4738918;30;20129;-73
2023/09/11 09:01:24;;;;;;;30.75;19.17;;;24.60;99.90;;;;;;4738908;30;20410;-72
2023/09/11 09:03:51;;;;;;;30.40;19.67;;;24.70;99.90;;;;;;4754832;30;20075;-72
2023/09/11 09:06:18;;;;;;;31.10;19.02;;;24.80;99.90;;;;;;4738881;30;20480;-72
2023/09/11 09:08:44;;;;;;;25.83;17.38;;;24.90;99.90;;;;;;4738820;30;20472;-71
2023/09/11 09:11:14;;;;;;;28.23;20.85;;;24.90;99.90;;;;;;4754293;30;20125;-71
2023/09/11 09:13:40;;;;;;;27.40;19.40;;;25.00;99.90;;;;;;4754341;30;20527;-71
2023/09/11 09:16:06;;;;;;;27.20;20.08;;;25.00;99.90;;;;;;4738544;30;20060;-72
2023/09/11 09:18:31;;;;;;;26.25;20.50;;;25.00;99.90;;;;;;4738418;30;20051;-72
2023/09/11 09:20:57;;;;;;;28.30;21.17;;;25.10;99.90;;;;;;4738580;30;20071;-73
2023/09/11 09:23:36;;;;;;;31.92;20.30;;;25.20;99.90;;;;;;4754536;30;20048;-72
2023/09/11 09:26:06;;;;;;;34.42;23.52;;;25.20;99.90;;;;;;4738586;30;20056;-75
2023/09/11 09:28:33;;;;;;;28.55;21.88;;;25.30;99.90;;;;;;4738363;30;20139;-75
2023/09/11 09:30:59;;;;;;;26.42;21.45;;;25.40;99.90;;;;;;4738209;30;20052;-73
2023/09/11 09:33:29;;;;;;;33.67;21.55;;;25.40;99.90;;;;;;4754177;30;20048;-73
2023/09/11 09:35:55;;;;;;;36.72;21.63;;;25.40;99.90;;;;;;4723819;30;20056;-73
2023/09/11 09:38:20;;;;;;;29.88;22.80;;;25.50;99.90;;;;;;4731577;30;20125;-73
2023/09/11 09:40:47;;;;;;;32.85;21.30;;;25.60;99.90;;;;;;4684460;30;21328;-73
2023/09/11 09:43:17;;;;;;;34.35;22.67;;;25.60;99.90;;;;;;4712921;30;20056;-73
2023/09/11 09:45:44;;;;;;;35.78;25.25;;;25.70;99.90;;;;;;4749014;30;20052;-73
2023/09/11 09:48:11;;;;;;;38.53;22.25;;;25.80;99.90;;;;;;4737874;30;20044;-72
2023/09/11 09:50:49;;;;;;;42.70;23.13;;;25.80;99.90;;;;;;4737700;30;20459;-73
2023/09/11 09:53:22;;;;;;;31.88;23.13;;;25.90;99.90;;;;;;4719872;30;20070;-73
2023/09/11 09:55:48;;;;;;;34.78;24.75;;;26.00;99.90;;;;;;4720308;30;20080;-74
2023/09/11 09:58:13;;;;;;;32.35;25.30;;;26.00;99.90;;;;;;4720155;30;20161;-73
2023/09/11 10:00:39;;;;;;;39.80;24.98;;;26.00;99.90;;;;;;4720163;30;20563;-73
2023/09/11 10:03:05;;;;;;;30.40;23.77;;;26.00;99.90;;;;;;4720486;30;20074;-74
2023/09/11 10:05:31;;;;;;;29.60;23.70;;;26.10;99.90;;;;;;4720459;30;20056;-74
2023/09/11 10:08:00;;;;;;;42.47;24.65;;;26.10;99.90;;;;;;4720369;30;20118;-74
2023/09/11 10:10:29;;;;;;;32.50;25.98;;;26.10;99.90;;;;;;4737524;30;20471;-74
2023/09/11 10:13:05;;;;;;;30.75;23.63;;;26.10;99.90;;;;;;4736162;30;20070;-74
2023/09/11 10:15:33;;;;;;;33.55;24.58;;;26.10;99.90;;;;;;4737396;30;20494;-74
2023/09/11 10:18:00;;;;;;;27.70;21.27;;;26.00;99.90;;;;;;4737712;30;20079;-74
2023/09/11 10:20:26;;;;;;;25.73;20.50;;;26.20;99.90;;;;;;4753351;30;20055;-74
2023/09/11 10:23:02;;;;;;;30.98;22.88;;;26.30;99.90;;;;;;4737366;30;20052;-73
2023/09/11 10:25:29;;;;;;;28.50;22.15;;;26.40;99.90;;;;;;4737622;30;20056;-73
2023/09/11 10:28:07;;;;;;;33.58;25.25;;;26.50;99.90;;;;;;4737515;30;20494;-74
2023/09/11 10:31:06;;;;;;;30.00;23.55;;;26.50;99.90;;;;;;4737325;30;20109;-74
2023/09/11 10:33:33;;;;;;;27.75;23.60;;;26.60;99.90;;;;;;4737163;30;20056;-74
2023/09/11 10:36:07;;;;;;;30.40;23.85;;;26.70;99.90;;;;;;4737128;30;20498;-74
2023/09/11 10:38:37;;;;;;;29.83;23.23;;;26.80;99.90;;;;;;4737265;30;20405;-72
2023/09/11 10:41:04;;;;;;;30.75;23.42;;;26.80;99.90;;;;;;4737092;30;20174;-73
2023/09/11 10:43:30;;;;;;;32.60;25.20;;;26.90;99.90;;;;;;4726793;30;20063;-72
2023/09/11 10:45:55;;;;;;;33.53;25.42;;;26.90;99.90;;;;;;4719751;30;20053;-74
2023/09/11 10:48:30;;;;;;;31.95;22.90;;;27.00;99.90;;;;;;4719784;30;20083;-73
2023/09/11 10:50:57;;;;;;;32.92;23.23;;;27.20;99.90;;;;;;4719610;30;20053;-72
2023/09/11 10:53:30;;;;;;;30.67;24.00;;;27.30;99.90;;;;;;4735404;30;20189;-73
2023/09/11 10:55:59;;;;;;;23.15;19.10;;;27.30;99.90;;;;;;4719303;30;20490;-73
2023/09/11 10:58:26;;;;;;;23.58;13.75;;;27.40;99.90;;;;;;4719370;30;20052;-73
2023/09/11 11:00:53;;;;;;;24.35;13.88;;;27.50;99.90;;;;;;4719416;30;20048;-73
2023/09/11 11:03:19;;;;;;;17.40;14.00;;;27.50;99.90;;;;;;4719428;30;20573;-73
2023/09/11 11:05:46;;;;;;;12.48;9.80;;;27.60;99.90;;;;;;4719123;30;20139;-74
2023/09/11 11:08:13;;;;;;;12.63;8.48;;;27.60;99.90;;;;;;4719185;30;20044;-74
2023/09/11 11:10:47;;;;;;;13.35;10.02;;;27.50;99.90;;;;;;4719253;30;20139;-74
2023/09/11 11:13:13;;;;;;;15.70;13.68;;;27.50;99.90;;;;;;4719482;30;20048;-74
2023/09/11 11:15:48;;;;;;;19.55;14.07;;;27.50;99.90;;;;;;4735108;30;20060;-73
2023/09/11 11:18:25;;;;;;;22.60;13.95;;;27.60;99.90;;;;;;4719103;30;20140;-73
2023/09/11 11:21:00;;;;;;;15.35;12.95;;;27.70;99.90;;;;;;4719419;30;20056;-73
2023/09/11 11:23:28;;;;;;;21.30;12.68;;;27.60;99.90;;;;;;4719145;30;20053;-73
2023/09/11 11:25:54;;;;;;;18.38;12.93;;;27.50;99.90;;;;;;4719197;30;20056;-73
2023/09/11 11:28:22;;;;;;;23.00;13.88;;;27.50;99.90;;;;;;4719287;30;20090;-73
2023/09/11 11:30:53;;;;;;;19.55;12.77;;;27.40;99.90;;;;;;4718989;30;20494;-73
2023/09/11 11:33:24;;;;;;;16.85;11.50;;;27.50;99.90;;;;;;4719164;30;20052;-73
2023/09/11 11:35:52;;;;;;;18.83;13.65;;;27.40;99.90;;;;;;4718957;30;20414;-73
2023/09/11 11:38:19;;;;;;;16.65;14.23;;;27.50;99.90;;;;;;4734786;30;20064;-73
2023/09/11 11:40:49;;;;;;;16.35;10.80;;;27.40;99.90;;;;;;4718878;30;20516;-73
2023/09/11 11:43:18;;;;;;;12.30;9.77;;;27.20;99.90;;;;;;4718914;30;20053;-73
2023/09/11 11:45:47;;;;;;;12.88;9.00;;;27.20;99.90;;;;;;4718941;30;20422;-73
2023/09/11 11:48:14;;;;;;;17.15;8.73;;;27.20;99.90;;;;;;4719340;30;20106;-73
2023/09/11 11:50:43;;;;;;;14.13;9.23;;;27.20;99.90;;;;;;4737332;30;20051;-73
2023/09/11 11:53:16;;;;;;;11.50;7.90;;;27.30;99.90;;;;;;4752214;30;20044;-73
2023/09/11 11:55:42;;;;;;;15.30;9.48;;;27.30;99.90;;;;;;4736204;30;20417;-72
2023/09/11 11:58:13;;;;;;;14.43;7.25;;;27.20;99.90;;;;;;4745194;30;20053;-72
2023/09/11 12:00:39;;;;;;;8.55;7.00;;;27.10;99.90;;;;;;4718832;30;20143;-73
2023/09/11 12:03:07;;;;;;;12.05;6.80;;;27.20;99.90;;;;;;4718862;30;20055;-73
2023/09/11 12:05:40;;;;;;;13.82;7.22;;;27.00;99.90;;;;;;4718713;30;20391;-73
2023/09/11 12:08:12;;;;;;;11.32;6.97;;;27.10;99.90;;;;;;4718866;30;20490;-73
2023/09/11 12:10:44;;;;;;;12.63;7.27;;;27.10;99.90;;;;;;4718970;30;20069;-73
2023/09/11 12:13:12;;;;;;;;;;;27.10;99.90;;;;;;4735228;30;20095;-73
2023/09/11 12:15:38;;;;;;;16.30;9.68;;;27.10;99.90;;;;;;4718677;30;19931;-73
2023/09/11 12:18:05;;;;;;;68.80;16.45;;;27.20;99.90;;;;;;4737127;30;20413;-74
2023/09/11 12:20:31;;;;;;;15.88;9.85;;;27.30;99.90;;;;;;4722125;30;20063;-73
2023/09/11 12:23:00;;;;;;;13.00;9.57;;;27.30;99.90;;;;;;4737702;30;20053;-73
2023/09/11 12:25:26;;;;;;;18.67;10.55;;;27.30;99.90;;;;;;4737857;30;20045;-73
2023/09/11 12:27:53;;;;;;;13.88;11.25;;;27.30;99.90;;;;;;4722021;30;20070;-72